Time;durP1;ratioP1;P1;durP2;ratioP2;P2;SDS_P1;SDS_P2;PMS_P1;PMS_P2;Temp;Humidity;BMP_temperature;BMP_pressure;BME280_temperature;BME280_humidity;BME280_pressure;Samples;Min_cycle;Max_cycle;Signal;HPM_P1;HPM_P2
2022/07/13 00:03:37;;;;;;;6.18;1.52;;;16.90;99.90;;;;;;10392177;28;20227;-82
2022/07/13 00:08:59;;;;;;;2.80;1.67;;;16.90;99.90;;;;;;10355403;28;20201;-82
2022/07/13 00:14:20;;;;;;;4.43;1.20;;;16.90;99.90;;;;;;10355101;28;20207;-83
2022/07/13 00:19:41;;;;;;;1.38;1.20;;;16.90;99.90;;;;;;10356228;28;20199;-82
2022/07/13 00:25:03;;;;;;;2.97;1.38;;;16.90;99.90;;;;;;10356137;28;20199;-82
2022/07/13 00:30:24;;;;;;;3.85;1.73;;;16.80;99.90;;;;;;10370886;28;20539;-82
2022/07/13 00:35:46;;;;;;;2.05;1.52;;;16.80;99.90;;;;;;10318634;28;20204;-81
2022/07/13 00:41:08;;;;;;;5.13;1.60;;;16.80;99.90;;;;;;10330437;28;20249;-81
2022/07/13 00:46:29;;;;;;;2.00;1.30;;;16.80;99.90;;;;;;10314291;28;20213;-82
2022/07/13 00:51:51;;;;;;;6.30;1.40;;;16.80;99.90;;;;;;10300108;28;20267;-82
2022/07/13 00:57:15;;;;;;;3.17;1.63;;;16.80;99.90;;;;;;10369418;28;20195;-81
2022/07/13 01:02:45;;;;;;;2.67;1.38;;;16.70;99.90;;;;;;10379985;28;20270;-82
2022/07/13 01:08:07;;;;;;;3.20;1.55;;;16.70;99.90;;;;;;10354650;28;20561;-82
2022/07/13 01:13:29;;;;;;;1.88;1.20;;;16.80;99.90;;;;;;10313651;28;20497;-82
2022/07/13 01:18:51;;;;;;;1.95;1.10;;;16.70;99.90;;;;;;10329548;28;20222;-82
2022/07/13 01:24:13;;;;;;;5.75;1.40;;;16.70;99.90;;;;;;10313264;28;20311;-82
2022/07/13 01:29:35;;;;;;;4.38;1.50;;;16.80;99.90;;;;;;10329090;28;20241;-81
2022/07/13 01:34:56;;;;;;;4.13;1.48;;;16.70;99.90;;;;;;10357737;28;20196;-82
2022/07/13 01:40:17;;;;;;;6.75;1.10;;;16.70;99.90;;;;;;10351207;28;20229;-82
2022/07/13 01:45:39;;;;;;;2.58;1.20;;;16.70;99.90;;;;;;10354121;28;20215;-81
2022/07/13 01:51:02;;;;;;;4.07;1.20;;;16.60;99.90;;;;;;10324986;28;20208;-83
2022/07/13 01:56:24;;;;;;;3.83;1.13;;;16.60;99.90;;;;;;10347108;28;20288;-83
2022/07/13 02:01:45;;;;;;;3.08;1.50;;;16.60;99.90;;;;;;10346948;28;20230;-83
2022/07/13 02:07:08;;;;;;;2.08;1.10;;;16.50;99.90;;;;;;10360315;28;20251;-82
2022/07/13 02:12:29;;;;;;;6.68;1.63;;;16.40;99.90;;;;;;10347015;28;20279;-82
2022/07/13 02:17:52;;;;;;;2.58;1.30;;;16.40;99.90;;;;;;10319697;28;20556;-79
2022/07/13 02:23:15;;;;;;;4.85;1.30;;;16.40;99.90;;;;;;10319379;28;20231;-82
2022/07/13 02:28:36;;;;;;;3.55;1.48;;;16.40;99.90;;;;;;10351367;28;20231;-82
2022/07/13 02:33:58;;;;;;;4.22;1.42;;;16.40;99.90;;;;;;10338732;28;20284;-82
2022/07/13 02:39:20;;;;;;;2.20;1.15;;;16.30;99.90;;;;;;10332666;28;20191;-82
2022/07/13 02:44:41;;;;;;;2.60;1.40;;;16.30;99.90;;;;;;10319420;28;20245;-82
2022/07/13 02:50:04;;;;;;;4.95;1.40;;;16.30;99.90;;;;;;10318240;28;20488;-82
2022/07/13 02:55:26;;;;;;;4.88;1.45;;;16.30;99.90;;;;;;10329060;28;20208;-83
2022/07/13 03:00:47;;;;;;;4.82;1.40;;;16.20;99.90;;;;;;10317907;28;20226;-83
2022/07/13 03:06:09;;;;;;;3.30;1.65;;;16.20;99.90;;;;;;10317852;28;20201;-82
2022/07/13 03:11:31;;;;;;;1.63;1.10;;;16.20;99.90;;;;;;10363395;28;20209;-83
2022/07/13 03:16:53;;;;;;;2.92;1.38;;;16.30;99.90;;;;;;10357772;28;20196;-82
2022/07/13 03:22:15;;;;;;;2.78;1.48;;;16.30;99.90;;;;;;10357663;28;20247;-83
2022/07/13 03:27:38;;;;;;;2.83;1.23;;;16.30;99.90;;;;;;10339105;28;20561;-83
2022/07/13 03:33:01;;;;;;;3.15;1.40;;;16.40;99.90;;;;;;10343481;28;20385;-83
2022/07/13 03:38:22;;;;;;;7.53;1.80;;;16.60;99.90;;;;;;10370489;28;20244;-82
2022/07/13 03:43:44;;;;;;;3.33;1.40;;;16.60;99.90;;;;;;10342449;28;20496;-83
2022/07/13 03:49:06;;;;;;;5.90;1.85;;;16.70;99.90;;;;;;10356463;28;20191;-82
2022/07/13 03:54:28;;;;;;;4.35;1.25;;;16.90;99.90;;;;;;10357946;28;20190;-81
2022/07/13 03:59:50;;;;;;;1.75;1.17;;;17.00;99.90;;;;;;10371212;28;20210;-83
2022/07/13 04:05:12;;;;;;;2.63;1.42;;;17.10;99.90;;;;;;10338185;28;20236;-83
2022/07/13 04:10:37;;;;;;;3.42;1.35;;;17.20;99.90;;;;;;10351243;28;20201;-83
2022/07/13 04:15:59;;;;;;;2.45;1.20;;;17.30;99.90;;;;;;10341408;28;20215;-82
2022/07/13 04:21:25;;;;;;;5.47;1.58;;;17.30;99.90;;;;;;10342369;28;20227;-82
2022/07/13 04:26:46;;;;;;;2.47;1.10;;;17.30;99.90;;;;;;10355834;28;20223;-82
2022/07/13 04:32:08;;;;;;;2.10;1.27;;;17.30;99.90;;;;;;10368895;28;20206;-83
2022/07/13 04:37:30;;;;;;;2.40;1.20;;;17.40;99.90;;;;;;10354571;28;20428;-83
2022/07/13 04:42:52;;;;;;;3.95;1.00;;;17.50;99.90;;;;;;10354192;28;20238;-81
2022/07/13 04:48:15;;;;;;;1.92;1.20;;;17.60;99.90;;;;;;10368188;28;20220;-83
2022/07/13 04:53:37;;;;;;;2.63;1.30;;;17.60;99.90;;;;;;10367991;28;20247;-83
2022/07/13 04:59:04;;;;;;;2.97;1.17;;;17.70;99.90;;;;;;10314468;28;20191;-81
2022/07/13 05:04:26;;;;;;;2.45;1.50;;;17.60;99.90;;;;;;10314233;28;20300;-84
2022/07/13 05:09:47;;;;;;;2.70;1.13;;;17.60;99.90;;;;;;10329255;28;20204;-84
2022/07/13 05:15:10;;;;;;;4.50;1.70;;;17.70;99.90;;;;;;10354080;28;20238;-84
2022/07/13 05:20:32;;;;;;;2.58;1.10;;;17.80;99.90;;;;;;10354062;28;20253;-84
2022/07/13 05:25:54;;;;;;;2.50;1.05;;;18.00;99.90;;;;;;10343491;28;20198;-83
2022/07/13 05:31:17;;;;;;;2.90;1.10;;;18.10;74.10;;;;;;10321622;28;20198;-82
2022/07/13 05:36:40;;;;;;;2.28;1.00;;;18.30;44.70;;;;;;10337238;28;20252;-84
2022/07/13 05:42:01;;;;;;;2.50;1.10;;;18.40;36.50;;;;;;10321809;28;20452;-82
2022/07/13 05:47:24;;;;;;;1.42;1.15;;;18.60;11.90;;;;;;10336993;28;20197;-83
2022/07/13 05:52:45;;;;;;;5.30;1.35;;;18.90;1.00;;;;;;10320077;28;20206;-84
2022/07/13 05:58:09;;;;;;;3.45;1.08;;;19.30;1.00;;;;;;10391637;28;20401;-84
2022/07/13 06:03:31;;;;;;;2.92;1.27;;;19.70;1.00;;;;;;10379766;28;20218;-84
2022/07/13 06:08:53;;;;;;;2.58;1.20;;;20.00;1.00;;;;;;10344932;28;20385;-83
2022/07/13 06:14:14;;;;;;;2.13;0.95;;;20.00;1.00;;;;;;10361218;28;20194;-77
2022/07/13 06:19:35;;;;;;;0.98;0.80;;;20.30;1.00;;;;;;10359798;28;20217;-77
2022/07/13 06:24:57;;;;;;;3.28;1.17;;;20.40;1.00;;;;;;10372907;28;20221;-83
2022/07/13 06:30:18;;;;;;;5.25;1.25;;;20.50;1.00;;;;;;10336929;28;20238;-81
2022/07/13 06:35:40;;;;;;;3.28;1.00;;;20.50;1.00;;;;;;10319755;28;20194;-79
2022/07/13 06:41:01;;;;;;;1.13;0.82;;;20.60;1.00;;;;;;10332247;28;20226;-80
2022/07/13 06:46:23;;;;;;;2.05;1.08;;;20.70;1.00;;;;;;10332077;28;20357;-81
2022/07/13 06:51:46;;;;;;;4.78;0.88;;;21.00;1.00;;;;;;10331534;28;20198;-78
2022/07/13 06:57:08;;;;;;;2.55;1.10;;;21.50;1.00;;;;;;10388362;28;20193;-81
2022/07/13 07:02:29;;;;;;;1.17;0.70;;;21.80;1.00;;;;;;10399105;28;20577;-79
2022/07/13 07:07:52;;;;;;;3.15;0.93;;;22.10;1.00;;;;;;10398600;28;20196;-82
2022/07/13 07:13:14;;;;;;;1.65;0.80;;;22.40;1.00;;;;;;10357920;28;20288;-81
2022/07/13 07:18:35;;;;;;;6.03;1.10;;;22.50;1.00;;;;;;10343184;28;20273;-84
2022/07/13 07:23:57;;;;;;;3.88;0.80;;;22.80;1.00;;;;;;10335601;28;20233;-82
2022/07/13 07:29:19;;;;;;;1.05;0.80;;;23.10;1.00;;;;;;10338794;28;20532;-83
2022/07/13 07:34:40;;;;;;;2.08;0.82;;;23.10;99.90;;;;;;10335522;28;20202;-83
2022/07/13 07:40:02;;;;;;;4.43;0.88;;;23.00;99.90;;;;;;10345573;28;20195;-88
2022/07/13 07:45:23;;;;;;;1.00;0.65;;;22.70;99.90;;;;;;10360334;28;20248;-86
2022/07/13 07:50:45;;;;;;;3.75;1.27;;;22.40;99.90;;;;;;10352852;28;20292;-83
2022/07/13 07:56:07;;;;;;;4.93;1.17;;;22.10;99.90;;;;;;10386021;28;20395;-84
2022/07/13 08:01:29;;;;;;;2.92;1.20;;;22.00;99.90;;;;;;10377600;28;20236;-84
2022/07/13 08:06:50;;;;;;;1.85;0.80;;;21.90;99.90;;;;;;10357526;28;20201;-80
2022/07/13 08:12:12;;;;;;;2.10;0.90;;;21.80;99.90;;;;;;10347357;28;20308;-83
2022/07/13 08:17:36;;;;;;;2.70;1.10;;;21.70;99.90;;;;;;10352078;28;20407;-87
2022/07/13 08:22:57;;;;;;;3.10;0.90;;;21.60;1.00;;;;;;10371265;28;20232;-85
2022/07/13 08:28:19;;;;;;;3.63;1.10;;;21.20;99.90;;;;;;10407592;28;20241;-88
2022/07/13 08:39:21;;;;;;;4.38;1.40;;;20.90;1.00;;;;;;10308403;28;20290;-82
2022/07/13 08:44:42;;;;;;;2.25;1.15;;;20.90;99.90;;;;;;10309922;28;20253;-83
2022/07/13 08:50:06;;;;;;;3.38;1.27;;;21.00;1.00;;;;;;10310510;28;20201;-84
2022/07/13 08:55:28;;;;;;;2.63;1.45;;;20.90;1.00;;;;;;10363483;28;20205;-83
2022/07/13 09:00:50;;;;;;;4.00;1.70;;;20.80;1.00;;;;;;10356632;28;20563;-82
2022/07/13 09:06:38;;;;;;;3.33;1.52;;;20.80;1.00;;;;;;10308691;28;20190;-81
2022/07/13 09:12:10;;;;;;;1.73;1.30;;;20.80;1.00;;;;;;10343994;28;20213;-83
2022/07/13 09:17:44;;;;;;;4.53;1.48;;;20.90;1.00;;;;;;10354185;28;20201;-80
2022/07/13 09:23:07;;;;;;;2.78;1.63;;;21.10;1.00;;;;;;10346055;28;20460;-81
2022/07/13 09:28:42;;;;;;;2.65;1.45;;;21.40;1.00;;;;;;10347032;28;20233;-81
2022/07/13 09:34:03;;;;;;;1.98;1.35;;;21.80;1.00;;;;;;10348644;28;20196;-81
2022/07/13 09:39:25;;;;;;;3.85;2.17;;;22.30;99.90;;;;;;10355717;28;20213;-82
2022/07/13 09:50:40;;;;;;;2.63;1.60;;;24.00;1.00;;;;;;10314886;28;20198;-81
2022/07/13 09:56:03;;;;;;;3.67;1.58;;;24.40;1.00;;;;;;10382107;28;20193;-82
2022/07/13 10:01:25;;;;;;;2.45;1.48;;;24.40;99.90;;;;;;10333841;28;20214;-82
2022/07/13 10:06:51;;;;;;;5.10;1.80;;;24.60;1.00;;;;;;10307824;28;20213;-85
2022/07/13 10:12:13;;;;;;;3.80;1.55;;;25.20;1.00;;;;;;10349717;28;20221;-83
2022/07/13 10:17:37;;;;;;;1.80;1.40;;;25.10;99.90;;;;;;10340408;28;20206;-82
2022/07/13 10:22:59;;;;;;;2.50;1.70;;;25.10;1.00;;;;;;10304347;28;20293;-79
2022/07/13 10:28:24;;;;;;;11.85;1.60;;;24.90;16.60;;;;;;10320379;28;20260;-82
2022/07/13 10:33:46;;;;;;;5.72;3.30;;;24.60;1.00;;;;;;10354369;28;20217;-83
2022/07/13 10:39:11;;;;;;;5.05;1.80;;;24.20;1.00;;;;;;10330015;28;20203;-82
2022/07/13 10:44:38;;;;;;;3.22;1.50;;;23.90;1.00;;;;;;10336245;28;20230;-78
2022/07/13 10:50:02;;;;;;;5.85;1.50;;;23.70;1.00;;;;;;10354241;28;20228;-81
2022/07/13 10:55:29;;;;;;;3.78;1.60;;;23.80;1.00;;;;;;10367394;28;20197;-81
2022/07/13 11:00:50;;;;;;;1.77;1.60;;;24.20;1.00;;;;;;10365017;28;20197;-81
2022/07/13 11:06:15;;;;;;;6.95;1.65;;;24.60;31.40;;;;;;10338326;28;20191;-81
2022/07/13 11:11:50;;;;;;;3.15;1.50;;;25.00;1.00;;;;;;10355939;28;20218;-82
2022/07/13 11:17:13;;;;;;;3.28;1.63;;;25.40;38.20;;;;;;10337899;28;20190;-81
2022/07/13 11:28:28;;;;;;;2.00;1.52;;;25.80;99.90;;;;;;10324997;28;20254;-82
2022/07/13 11:33:50;;;;;;;3.90;2.70;;;25.80;99.90;;;;;;10331208;28;20198;-82
2022/07/13 11:39:26;;;;;;;2.10;1.50;;;25.50;99.90;;;;;;10338689;28;20197;-80
2022/07/13 11:44:53;;;;;;;2.42;1.38;;;25.40;99.90;;;;;;10364704;28;20414;-79
2022/07/13 11:50:15;;;;;;;2.55;1.30;;;25.00;99.90;;;;;;10352077;28;20194;-82
2022/07/13 11:55:37;;;;;;;3.30;1.70;;;24.80;99.90;;;;;;10352704;28;20232;-84
2022/07/13 12:01:00;;;;;;;3.00;1.33;;;24.60;99.90;;;;;;10338240;28;20193;-82
2022/07/13 12:06:27;;;;;;;3.35;1.48;;;24.40;1.00;;;;;;10350058;28;20198;-83
2022/07/13 12:11:49;;;;;;;2.42;1.50;;;24.10;1.00;;;;;;10343729;28;20212;-81
2022/07/13 12:17:11;;;;;;;4.53;1.40;;;24.00;1.00;;;;;;10341844;28;20501;-82
2022/07/13 12:22:32;;;;;;;4.65;1.40;;;24.10;99.90;;;;;;10342084;28;20406;-83
2022/07/13 12:27:59;;;;;;;3.17;1.35;;;24.60;99.90;;;;;;10355096;28;20309;-81
2022/07/13 12:33:23;;;;;;;3.13;1.80;;;25.10;1.00;;;;;;10336320;28;20202;-83
2022/07/13 12:39:04;;;;;;;2.25;1.88;;;25.00;1.00;;;;;;10349560;28;20229;-81
2022/07/13 12:44:28;;;;;;;32.80;3.63;;;25.60;1.00;;;;;;10351316;28;20276;-84
2022/07/13 12:49:50;;;;;;;8.25;2.28;;;26.30;99.90;;;;;;10351457;28;20198;-88
2022/07/13 12:55:13;;;;;;;2.33;1.60;;;26.60;99.90;;;;;;10361392;28;20197;-86
2022/07/13 13:00:36;;;;;;;4.22;1.70;;;26.60;1.00;;;;;;10363128;28;20201;-89
2022/07/13 13:06:03;;;;;;;2.75;1.40;;;26.40;1.00;;;;;;10350643;28;20229;-89
2022/07/13 13:11:25;;;;;;;5.57;1.70;;;25.90;1.00;;;;;;10322368;28;20214;-88
2022/07/13 13:16:47;;;;;;;4.57;1.60;;;25.50;12.40;;;;;;10351650;28;20260;-87
2022/07/13 13:22:08;;;;;;;7.57;2.20;;;25.50;99.90;;;;;;10341784;28;20241;-86
2022/07/13 13:27:30;;;;;;;3.38;1.77;;;25.50;99.90;;;;;;10364049;28;20233;-83
2022/07/13 13:33:13;;;;;;;2.90;1.85;;;25.50;99.90;;;;;;10360870;28;20405;-81
2022/07/13 13:38:35;;;;;;;3.53;2.05;;;25.60;99.90;;;;;;10350845;28;20201;-85
2022/07/13 13:43:58;;;;;;;1.95;1.60;;;25.10;38.10;;;;;;10363618;28;20421;-86
2022/07/13 13:49:20;;;;;;;3.15;1.80;;;24.90;99.90;;;;;;10357559;28;20193;-86
2022/07/13 13:54:42;;;;;;;3.75;1.83;;;24.90;99.90;;;;;;10358647;28;20205;-84
2022/07/13 14:00:04;;;;;;;6.30;1.92;;;25.10;98.70;;;;;;10385506;28;20197;-84
2022/07/13 14:05:46;;;;;;;8.77;1.50;;;25.50;1.00;;;;;;10346978;28;20214;-86
2022/07/13 14:11:07;;;;;;;2.70;1.83;;;25.70;1.00;;;;;;10380853;28;20217;-86
2022/07/13 14:16:47;;;;;;;2.42;1.40;;;25.60;1.00;;;;;;10365612;28;20194;-85
2022/07/13 14:22:08;;;;;;;1.95;1.58;;;25.20;1.00;;;;;;10380684;28;20235;-88
2022/07/13 14:27:31;;;;;;;2.75;1.73;;;25.00;1.00;;;;;;10337129;28;20258;-80
2022/07/13 14:32:53;;;;;;;1.50;1.40;;;24.80;1.00;;;;;;10339235;28;20210;-82
2022/07/13 14:38:16;;;;;;;6.35;1.90;;;24.80;1.00;;;;;;10350779;28;20193;-82
2022/07/13 14:43:54;;;;;;;2.15;1.38;;;25.00;1.00;;;;;;10332527;28;20310;-80
2022/07/13 14:49:16;;;;;;;6.45;1.48;;;25.00;1.00;;;;;;10367995;28;20217;-83
2022/07/13 14:54:40;;;;;;;2.03;1.55;;;25.00;1.00;;;;;;10369466;28;20201;-86
2022/07/13 15:00:03;;;;;;;3.38;1.83;;;25.00;1.00;;;;;;10338642;28;20198;-85
2022/07/13 15:05:27;;;;;;;7.50;2.08;;;25.00;1.00;;;;;;10321669;28;20284;-82
2022/07/13 15:10:50;;;;;;;4.00;1.52;;;24.80;1.00;;;;;;10351140;28;20512;-84
2022/07/13 15:16:17;;;;;;;2.58;1.60;;;24.70;1.00;;;;;;10343591;28;20241;-82
2022/07/13 15:21:39;;;;;;;3.78;2.13;;;24.60;1.00;;;;;;10358006;28;20214;-84
2022/07/13 15:27:00;;;;;;;11.23;1.63;;;24.60;1.00;;;;;;10356824;28;20276;-84
2022/07/13 15:32:21;;;;;;;2.25;1.48;;;24.60;1.00;;;;;;10356139;28;20228;-84
2022/07/13 15:37:43;;;;;;;3.60;2.05;;;24.60;1.00;;;;;;10327290;28;20190;-84
2022/07/13 15:43:04;;;;;;;2.65;1.75;;;24.70;1.00;;;;;;10332307;28;20229;-84
2022/07/13 15:48:26;;;;;;;2.45;1.90;;;24.50;1.00;;;;;;10316875;28;20546;-84
2022/07/13 15:53:48;;;;;;;1.75;1.65;;;24.30;57.70;;;;;;10336725;28;20204;-84
2022/07/13 15:59:09;;;;;;;2.90;1.92;;;24.40;99.90;;;;;;10337403;28;20270;-88
2022/07/13 16:04:31;;;;;;;2.05;1.60;;;24.60;99.90;;;;;;10343852;28;20229;-85
2022/07/13 16:09:53;;;;;;;2.78;1.73;;;24.60;96.40;;;;;;10357062;28;20228;-87
2022/07/13 16:15:15;;;;;;;3.47;1.70;;;24.40;99.90;;;;;;10343385;28;20205;-85
2022/07/13 16:20:37;;;;;;;5.10;1.88;;;24.30;99.90;;;;;;10355558;28;20194;-85
2022/07/13 16:25:59;;;;;;;1.63;1.52;;;24.20;99.90;;;;;;10367189;28;20221;-86
2022/07/13 16:31:21;;;;;;;2.63;1.98;;;24.00;85.50;;;;;;10354459;28;20193;-86
2022/07/13 16:36:42;;;;;;;2.65;1.67;;;23.90;99.90;;;;;;10337652;28;20202;-86
2022/07/13 16:42:04;;;;;;;2.60;1.55;;;23.90;99.90;;;;;;10301231;28;20223;-85
2022/07/13 16:47:26;;;;;;;4.47;2.00;;;23.90;99.90;;;;;;10331099;28;20222;-86
2022/07/13 16:52:47;;;;;;;3.65;1.70;;;23.70;1.00;;;;;;10342957;28;20256;-84
2022/07/13 16:58:09;;;;;;;4.22;1.60;;;23.40;59.90;;;;;;10368506;28;20197;-86
2022/07/13 17:03:30;;;;;;;1.67;1.15;;;23.30;99.90;;;;;;10335725;28;20242;-86
2022/07/13 17:08:52;;;;;;;1.65;1.50;;;23.30;99.90;;;;;;10334398;28;20280;-86
2022/07/13 17:14:13;;;;;;;4.45;1.83;;;23.30;99.90;;;;;;10354830;28;20338;-85
2022/07/13 17:19:35;;;;;;;2.75;1.70;;;23.20;99.90;;;;;;10372791;28;20197;-85
2022/07/13 17:24:56;;;;;;;8.13;2.20;;;23.10;99.90;;;;;;10379063;28;20416;-83
2022/07/13 17:30:18;;;;;;;4.53;1.60;;;23.10;99.90;;;;;;10363311;28;20609;-86
2022/07/13 17:35:39;;;;;;;7.10;1.98;;;23.10;99.90;;;;;;10348533;28;20213;-85
2022/07/13 17:41:02;;;;;;;2.03;1.80;;;23.00;99.90;;;;;;10362968;28;20200;-85
2022/07/13 17:46:24;;;;;;;4.50;1.50;;;23.00;99.90;;;;;;10362212;28;20269;-86
2022/07/13 17:51:46;;;;;;;7.68;1.85;;;22.80;99.90;;;;;;10358125;28;20194;-83
2022/07/13 17:57:07;;;;;;;3.75;1.88;;;22.80;1.00;;;;;;10370839;28;20430;-85
2022/07/13 18:02:30;;;;;;;3.65;1.50;;;22.70;99.90;;;;;;10347801;28;20218;-85
2022/07/13 18:07:52;;;;;;;4.15;1.80;;;22.60;99.90;;;;;;10321971;28;20218;-85
2022/07/13 18:13:13;;;;;;;2.90;1.80;;;22.50;1.00;;;;;;10359428;28;20202;-85
2022/07/13 18:18:35;;;;;;;3.95;1.55;;;22.40;1.00;;;;;;10360746;28;20244;-85
2022/07/13 18:24:01;;;;;;;3.58;1.90;;;22.30;22.60;;;;;;10326283;28;20222;-85
2022/07/13 18:29:23;;;;;;;1.70;1.60;;;22.20;99.90;;;;;;10326577;28;20246;-83
2022/07/13 18:34:45;;;;;;;3.58;2.10;;;22.20;1.00;;;;;;10360053;28;20201;-84
2022/07/13 18:40:07;;;;;;;1.85;1.75;;;;;;;;;;10347968;28;20190;-84
2022/07/13 18:45:28;;;;;;;2.03;1.80;;;21.90;1.00;;;;;;10359686;28;20245;-84
2022/07/13 18:50:50;;;;;;;3.67;2.00;;;21.80;1.00;;;;;;10338940;28;20190;-84
2022/07/13 18:56:12;;;;;;;2.05;1.85;;;21.70;99.90;;;;;;10379561;28;20511;-85
2022/07/13 19:01:34;;;;;;;2.92;2.40;;;21.60;1.00;;;;;;10371440;28;20484;-85
2022/07/13 19:06:55;;;;;;;3.40;2.30;;;21.50;1.00;;;;;;10375093;28;20469;-85
2022/07/13 19:12:17;;;;;;;2.95;2.10;;;21.40;1.00;;;;;;10329683;28;20250;-85
2022/07/13 19:17:38;;;;;;;3.90;2.78;;;21.30;99.90;;;;;;10322817;28;20204;-82
2022/07/13 19:23:00;;;;;;;3.33;2.35;;;21.20;1.00;;;;;;10318882;28;20262;-85
2022/07/13 19:28:21;;;;;;;2.65;2.17;;;21.00;1.00;;;;;;10331765;28;20453;-83
2022/07/13 19:33:43;;;;;;;3.85;2.15;;;20.90;1.00;;;;;;10350323;28;20229;-83
2022/07/13 19:39:04;;;;;;;3.85;2.47;;;20.90;1.00;;;;;;10323542;28;20249;-84
2022/07/13 19:44:26;;;;;;;2.58;2.38;;;20.80;1.00;;;;;;10302839;28;20229;-84
2022/07/13 19:49:48;;;;;;;2.53;2.33;;;20.70;1.00;;;;;;10317983;28;20208;-85
2022/07/13 19:55:10;;;;;;;3.97;2.40;;;20.60;90.80;;;;;;10348762;28;20201;-85
2022/07/13 20:00:35;;;;;;;7.43;2.65;;;20.50;99.90;;;;;;10357010;28;20277;-84
2022/07/13 20:05:56;;;;;;;4.47;2.50;;;20.40;99.90;;;;;;10357262;28;20228;-84
2022/07/13 20:11:19;;;;;;;3.33;2.70;;;20.40;99.90;;;;;;10331187;28;20210;-84
2022/07/13 20:16:40;;;;;;;4.47;2.70;;;20.30;99.90;;;;;;10316122;28;20194;-84
2022/07/13 20:22:02;;;;;;;4.88;2.70;;;20.30;99.90;;;;;;10355800;28;20232;-84
2022/07/13 20:27:24;;;;;;;2.70;2.50;;;20.20;1.00;;;;;;10356630;28;20233;-83
2022/07/13 20:32:45;;;;;;;3.78;2.80;;;20.10;1.00;;;;;;10347087;28;20209;-85
2022/07/13 20:38:07;;;;;;;3.03;2.25;;;20.00;1.00;;;;;;10354636;28;20221;-84
2022/07/13 20:43:28;;;;;;;3.63;2.97;;;20.00;1.00;;;;;;10308562;28;20245;-84
2022/07/13 20:48:50;;;;;;;4.18;3.10;;;19.90;1.00;;;;;;10330797;28;20512;-85
2022/07/13 20:54:13;;;;;;;3.10;2.80;;;19.90;1.00;;;;;;10338589;28;20202;-84
2022/07/13 20:59:35;;;;;;;3.50;2.58;;;19.80;1.00;;;;;;10354395;28;20221;-84
2022/07/13 21:04:56;;;;;;;4.28;3.10;;;19.80;1.00;;;;;;10354322;28;20407;-85
2022/07/13 21:10:18;;;;;;;4.35;3.28;;;19.70;1.00;;;;;;10354792;28;20212;-85
2022/07/13 21:15:40;;;;;;;4.25;3.25;;;19.60;1.00;;;;;;10355726;28;20225;-84
2022/07/13 21:21:02;;;;;;;3.88;3.03;;;19.50;1.00;;;;;;10370432;28;20551;-84
2022/07/13 21:26:24;;;;;;;8.77;3.35;;;19.40;1.00;;;;;;10367946;28;20253;-85
2022/07/13 21:31:45;;;;;;;6.03;3.45;;;19.40;1.00;;;;;;10353364;28;20297;-82
2022/07/13 21:37:06;;;;;;;4.88;3.33;;;19.30;1.00;;;;;;10353431;28;20213;-82
2022/07/13 21:42:32;;;;;;;3.88;3.08;;;19.30;1.00;;;;;;10339838;28;20395;-81
2022/07/13 21:47:53;;;;;;;4.95;3.17;;;19.20;1.00;;;;;;10353633;28;20232;-84
2022/07/13 21:53:15;;;;;;;4.38;3.00;;;19.10;1.00;;;;;;10353685;28;20202;-82
2022/07/13 21:58:36;;;;;;;3.88;3.38;;;19.00;1.00;;;;;;10353458;28;20202;-84
2022/07/13 22:03:58;;;;;;;4.85;3.55;;;19.00;1.00;;;;;;10349283;28;20238;-84
2022/07/13 22:09:19;;;;;;;4.40;3.90;;;18.90;1.00;;;;;;10361812;28;20197;-84
2022/07/13 22:15:18;;;;;;;5.70;3.55;;;18.90;1.00;;;;;;10367978;28;20205;-84
2022/07/13 22:21:29;;;;;;;4.38;3.13;;;18.90;1.00;;;;;;10360679;28;20500;-84
2022/07/13 22:27:29;;;;;;;4.93;3.50;;;18.80;1.00;;;;;;10346690;28;20245;-80
2022/07/13 22:33:28;;;;;;;3.67;3.22;;;18.80;1.00;;;;;;10322134;28;20248;-81
2022/07/13 22:39:28;;;;;;;3.05;2.60;;;18.80;1.00;;;;;;10359957;28;20388;-81
2022/07/13 22:45:29;;;;;;;2.97;2.78;;;18.70;1.00;;;;;;10345843;28;20296;-83
2022/07/13 22:51:28;;;;;;;2.97;2.78;;;18.70;1.00;;;;;;10359517;28;20240;-82
2022/07/13 22:57:28;;;;;;;6.40;3.90;;;18.60;1.00;;;;;;10353584;28;20240;-85
2022/07/13 23:03:26;;;;;;;5.43;3.33;;;18.60;1.00;;;;;;10364758;28;20201;-84
2022/07/13 23:09:25;;;;;;;5.32;2.75;;;18.50;1.00;;;;;;10351767;28;20190;-86
2022/07/13 23:15:24;;;;;;;5.20;2.97;;;18.50;1.00;;;;;;10366750;28;20197;-85
2022/07/13 23:21:23;;;;;;;6.30;3.20;;;18.40;1.00;;;;;;10345046;28;20198;-84
2022/07/13 23:27:22;;;;;;;7.72;3.50;;;18.40;1.00;;;;;;10357616;28;20253;-84
2022/07/13 23:32:44;;;;;;;6.35;3.20;;;18.30;1.00;;;;;;10357145;28;20210;-84
2022/07/13 23:38:06;;;;;;;4.05;2.90;;;18.20;12.00;;;;;;10318199;28;20637;-84
2022/07/13 23:43:28;;;;;;;4.10;2.80;;;18.20;23.90;;;;;;10318319;28;20555;-85
2022/07/13 23:48:50;;;;;;;3.13;2.78;;;18.10;30.70;;;;;;10318333;28;20492;-86
2022/07/13 23:54:11;;;;;;;5.15;3.03;;;18.10;41.40;;;;;;10356439;28;20198;-86
2022/07/13 23:59:34;;;;;;;3.78;3.20;;;18.00;41.20;;;;;;10373044;28;20209;-86
